Time;durP1;ratioP1;P1;durP2;ratioP2;P2;SDS_P1;SDS_P2;PMS_P1;PMS_P2;Temp;Humidity;BMP_temperature;BMP_pressure;BME280_temperature;BME280_humidity;BME280_pressure;Samples;Min_cycle;Max_cycle;Signal;HPM_P1;HPM_P2
2021/08/21 00:01:35;;;;;;;13.93;8.30;;;15.10;99.90;;;;;;5054767;28;20233;-61
2021/08/21 00:04:02;;;;;;;10.93;7.73;;;15.10;99.90;;;;;;5054125;28;20229;-62
2021/08/21 00:06:29;;;;;;;15.87;8.87;;;15.10;99.90;;;;;;5053852;28;20206;-59
2021/08/21 00:08:56;;;;;;;11.87;7.73;;;15.10;1.00;;;;;;5054627;28;20619;-59
2021/08/21 00:11:24;;;;;;;11.60;8.63;;;15.00;1.00;;;;;;5054100;28;20233;-59
2021/08/21 00:13:51;;;;;;;15.00;8.07;;;15.00;1.00;;;;;;5054594;28;20252;-61
2021/08/21 00:16:17;;;;;;;11.03;8.30;;;15.00;1.00;;;;;;5054498;28;20740;-60
2021/08/21 00:18:44;;;;;;;12.57;8.30;;;14.90;1.00;;;;;;5054417;28;20210;-61
2021/08/21 00:21:13;;;;;;;11.93;9.00;;;14.90;1.00;;;;;;5054134;28;20225;-59
2021/08/21 00:23:40;;;;;;;14.03;9.47;;;14.90;1.00;;;;;;5054039;28;20597;-59
2021/08/21 00:26:06;;;;;;;12.60;9.10;;;14.90;1.00;;;;;;5054025;28;20201;-60
2021/08/21 00:28:35;;;;;;;15.57;9.23;;;14.90;1.00;;;;;;5054248;28;20266;-61
2021/08/21 00:31:01;;;;;;;15.50;9.43;;;14.90;1.00;;;;;;5053975;28;20652;-60
2021/08/21 00:33:28;;;;;;;13.10;9.00;;;14.90;1.00;;;;;;5053848;28;20257;-61
2021/08/21 00:35:55;;;;;;;15.00;9.17;;;14.90;1.00;;;;;;5054060;28;20251;-59
2021/08/21 00:38:21;;;;;;;15.73;9.80;;;14.80;1.00;;;;;;5053799;28;20206;-61
2021/08/21 00:40:48;;;;;;;14.77;9.43;;;14.80;1.00;;;;;;5053822;28;20555;-60
2021/08/21 00:43:15;;;;;;;15.37;10.00;;;14.80;1.00;;;;;;5053639;28;20828;-61
2021/08/21 00:45:43;;;;;;;12.57;8.83;;;14.80;1.00;;;;;;5053868;28;20210;-61
2021/08/21 00:48:10;;;;;;;13.80;9.10;;;14.80;1.00;;;;;;5053829;28;20205;-60
2021/08/21 00:50:36;;;;;;;17.63;9.70;;;14.70;1.00;;;;;;5053750;28;20205;-61
2021/08/21 00:53:03;;;;;;;15.63;10.10;;;14.70;1.00;;;;;;5053655;28;20205;-61
2021/08/21 00:55:30;;;;;;;13.90;9.77;;;14.70;1.00;;;;;;5053652;28;20201;-62
2021/08/21 00:57:57;;;;;;;14.60;10.70;;;14.70;1.00;;;;;;5053508;28;20675;-62
2021/08/21 01:00:24;;;;;;;17.77;9.87;;;14.70;1.00;;;;;;5053581;28;20202;-62
2021/08/21 01:02:52;;;;;;;15.30;9.50;;;14.70;1.00;;;;;;5053455;28;20280;-62
2021/08/21 01:05:19;;;;;;;16.20;9.83;;;14.70;1.00;;;;;;5053349;28;20206;-61
2021/08/21 01:07:46;;;;;;;14.40;10.37;;;14.70;1.00;;;;;;5053577;28;20296;-61
2021/08/21 01:10:16;;;;;;;15.87;10.07;;;14.70;1.00;;;;;;5053391;28;20237;-62
2021/08/21 01:12:46;;;;;;;17.57;10.47;;;14.70;1.00;;;;;;5053353;28;20221;-61
2021/08/21 01:15:13;;;;;;;17.00;11.27;;;14.60;1.00;;;;;;5053098;28;20206;-61
2021/08/21 01:17:40;;;;;;;18.30;11.67;;;14.60;1.00;;;;;;5052890;28;20201;-61
2021/08/21 01:20:09;;;;;;;20.60;11.20;;;14.60;1.00;;;;;;5053046;28;20208;-61
2021/08/21 01:22:36;;;;;;;24.13;13.13;;;14.60;1.00;;;;;;5053114;28;20230;-59
2021/08/21 01:25:05;;;;;;;19.43;11.90;;;14.50;1.00;;;;;;5053103;28;20205;-61
2021/08/21 01:27:33;;;;;;;25.23;12.60;;;14.50;1.00;;;;;;5053195;28;20255;-59
2021/08/21 01:30:01;;;;;;;20.30;12.30;;;14.50;1.00;;;;;;5053143;28;20259;-60
2021/08/21 01:32:28;;;;;;;20.20;12.00;;;14.50;1.00;;;;;;5052757;28;20226;-61
2021/08/21 01:34:56;;;;;;;25.10;12.03;;;14.50;1.00;;;;;;5052945;28;20609;-60
2021/08/21 01:37:25;;;;;;;21.00;12.47;;;14.50;1.00;;;;;;5052672;28;20731;-59
2021/08/21 01:39:54;;;;;;;26.40;13.00;;;14.50;1.00;;;;;;5052929;28;20206;-57
2021/08/21 01:42:21;;;;;;;24.03;12.90;;;14.50;1.00;;;;;;5052583;28;20233;-60
2021/08/21 01:44:49;;;;;;;21.87;12.63;;;14.50;7.10;;;;;;5052694;28;20209;-59
2021/08/21 01:47:17;;;;;;;25.53;13.20;;;14.50;12.30;;;;;;5052751;28;20206;-62
2021/08/21 01:49:50;;;;;;;26.20;13.80;;;14.50;20.60;;;;;;5052904;28;20209;-61
2021/08/21 01:52:16;;;;;;;26.43;14.43;;;14.50;26.40;;;;;;5052958;28;20226;-61
2021/08/21 01:54:43;;;;;;;26.37;14.73;;;14.50;34.70;;;;;;5052450;28;20689;-62
2021/08/21 01:57:10;;;;;;;29.37;14.17;;;14.50;47.70;;;;;;5052728;28;20275;-61
2021/08/21 01:59:37;;;;;;;29.63;13.93;;;14.50;62.80;;;;;;5052477;28;20271;-61
2021/08/21 02:02:07;;;;;;;30.03;14.93;;;14.50;73.80;;;;;;5052778;28;20571;-62
2021/08/21 02:04:34;;;;;;;26.27;13.53;;;14.50;77.90;;;;;;5052236;28;20701;-59
2021/08/21 02:07:00;;;;;;;28.23;13.03;;;14.50;79.70;;;;;;5052392;28;20205;-61
2021/08/21 02:09:28;;;;;;;23.80;14.43;;;14.50;81.50;;;;;;5052300;28;20263;-58
2021/08/21 02:11:57;;;;;;;29.73;14.00;;;14.50;80.00;;;;;;5052286;28;20225;-59
2021/08/21 02:14:24;;;;;;;27.37;14.87;;;14.50;80.50;;;;;;5052170;28;20761;-61
2021/08/21 02:16:54;;;;;;;28.63;15.27;;;14.50;81.00;;;;;;5052301;28;20217;-61
2021/08/21 02:19:23;;;;;;;27.20;14.87;;;14.40;90.00;;;;;;5052314;28;20205;-59
2021/08/21 02:21:51;;;;;;;36.10;17.90;;;14.40;90.10;;;;;;5052075;28;20579;-61
2021/08/21 02:24:23;;;;;;;30.13;17.03;;;14.40;81.20;;;;;;5051840;28;20279;-61
2021/08/21 02:26:50;;;;;;;36.13;16.80;;;14.40;80.40;;;;;;5051773;28;20289;-61
2021/08/21 02:29:17;;;;;;;28.63;15.93;;;14.40;80.40;;;;;;5051186;28;20666;-59
2021/08/21 02:31:43;;;;;;;33.97;17.23;;;14.40;82.40;;;;;;5052008;28;20237;-59
2021/08/21 02:34:10;;;;;;;29.60;16.03;;;14.40;86.10;;;;;;5051965;28;20202;-61
2021/08/21 02:36:38;;;;;;;28.53;15.93;;;14.40;88.00;;;;;;5051751;28;20261;-58
2021/08/21 02:39:06;;;;;;;36.10;16.63;;;14.40;89.10;;;;;;5051845;28;20624;-58
2021/08/21 02:41:32;;;;;;;32.97;17.03;;;14.40;91.50;;;;;;5051576;28;20241;-62
2021/08/21 02:44:00;;;;;;;32.13;16.83;;;14.40;93.40;;;;;;5051785;28;20222;-59
2021/08/21 02:46:27;;;;;;;31.33;16.80;;;14.40;94.50;;;;;;5052016;28;20259;-61
2021/08/21 02:48:54;;;;;;;32.33;15.47;;;14.40;91.00;;;;;;5051767;28;20206;-60
2021/08/21 02:51:20;;;;;;;29.50;15.70;;;14.40;87.50;;;;;;5051515;28;20230;-59
2021/08/21 02:53:48;;;;;;;27.77;14.47;;;14.40;88.10;;;;;;5051392;28;20293;-61
2021/08/21 02:56:15;;;;;;;24.57;14.40;;;14.40;82.90;;;;;;5051758;28;20631;-61
2021/08/21 02:58:41;;;;;;;28.97;15.13;;;14.40;80.40;;;;;;5051779;28;20201;-58
2021/08/21 03:01:08;;;;;;;32.13;16.10;;;14.30;77.30;;;;;;5051557;28;20279;-61
2021/08/21 03:03:35;;;;;;;41.03;16.23;;;14.30;80.20;;;;;;5051438;28;20808;-61
2021/08/21 03:06:01;;;;;;;38.57;17.07;;;14.30;71.70;;;;;;5051607;28;20209;-60
2021/08/21 03:08:28;;;;;;;38.50;17.63;;;14.30;78.70;;;;;;5051601;28;20256;-59
2021/08/21 03:10:56;;;;;;;52.63;19.37;;;14.30;86.20;;;;;;5051669;28;20206;-59
2021/08/21 03:13:22;;;;;;;49.63;19.30;;;14.40;92.90;;;;;;5051688;28;20641;-59
2021/08/21 03:15:49;;;;;;;44.73;18.37;;;14.40;97.60;;;;;;5051504;28;20256;-60
2021/08/21 03:18:15;;;;;;;45.37;17.23;;;14.30;99.90;;;;;;5051599;28;20209;-60
2021/08/21 03:20:42;;;;;;;52.93;18.97;;;14.40;99.90;;;;;;5051368;28;20210;-61
2021/08/21 03:23:09;;;;;;;46.33;18.77;;;14.40;99.90;;;;;;5051291;28;20229;-58
2021/08/21 03:25:35;;;;;;;44.57;18.27;;;14.40;99.90;;;;;;5051593;28;20206;-61
2021/08/21 03:28:04;;;;;;;47.43;19.20;;;14.40;99.90;;;;;;5051587;28;20205;-60
2021/08/21 03:30:30;;;;;;;46.47;18.97;;;14.40;99.90;;;;;;5051362;28;20217;-62
2021/08/21 03:32:57;;;;;;;47.30;19.20;;;14.40;99.90;;;;;;5051335;28;20578;-59
2021/08/21 03:35:24;;;;;;;47.00;19.30;;;14.40;99.90;;;;;;5051231;28;20202;-61
2021/08/21 03:37:50;;;;;;;41.47;18.27;;;14.40;99.90;;;;;;5051323;28;20271;-61
2021/08/21 03:40:17;;;;;;;47.53;18.87;;;14.30;99.90;;;;;;5053973;28;20562;-59
2021/08/21 03:42:43;;;;;;;46.23;18.27;;;14.30;99.90;;;;;;5054979;28;20226;-59
2021/08/21 03:45:12;;;;;;;46.47;18.77;;;14.30;99.90;;;;;;5054711;28;20710;-60
2021/08/21 03:47:38;;;;;;;45.77;18.63;;;14.30;99.90;;;;;;5054932;28;20205;-58
2021/08/21 03:50:06;;;;;;;39.07;17.43;;;14.30;99.90;;;;;;5054687;28;20262;-61
2021/08/21 03:52:32;;;;;;;49.57;19.90;;;14.30;99.90;;;;;;5055051;28;20233;-60
2021/08/21 03:54:59;;;;;;;48.83;18.53;;;14.30;99.90;;;;;;5054915;28;20258;-61
2021/08/21 03:57:26;;;;;;;47.13;18.97;;;14.30;99.90;;;;;;5054729;28;20201;-60
2021/08/21 03:59:52;;;;;;;42.97;19.73;;;14.30;99.90;;;;;;5054960;28;20217;-61
2021/08/21 04:02:20;;;;;;;45.10;19.77;;;14.30;99.90;;;;;;5054653;28;20276;-61
2021/08/21 04:04:47;;;;;;;50.63;22.33;;;14.40;99.90;;;;;;5054046;28;20225;-61
2021/08/21 04:07:16;;;;;;;48.77;21.53;;;14.40;99.90;;;;;;5054821;28;20201;-60
2021/08/21 04:09:43;;;;;;;49.97;21.03;;;14.40;99.90;;;;;;5054613;28;20205;-61
2021/08/21 04:12:10;;;;;;;46.27;19.57;;;14.40;99.90;;;;;;5054441;28;20229;-58
2021/08/21 04:14:37;;;;;;;42.07;20.10;;;14.40;99.90;;;;;;5054239;28;20202;-61
2021/08/21 04:17:04;;;;;;;42.43;19.63;;;14.40;99.90;;;;;;5054335;28;20666;-59
2021/08/21 04:19:32;;;;;;;48.10;20.87;;;14.40;99.90;;;;;;5054230;28;20262;-61
2021/08/21 04:21:59;;;;;;;41.40;19.23;;;14.40;99.90;;;;;;5054214;28;20843;-61
2021/08/21 04:24:25;;;;;;;48.27;19.23;;;14.40;99.90;;;;;;5054076;28;20309;-61
2021/08/21 04:26:52;;;;;;;38.87;17.97;;;14.40;99.90;;;;;;5054317;28;20201;-61
2021/08/21 04:29:18;;;;;;;43.53;18.30;;;14.40;99.90;;;;;;5054244;28;20271;-61
2021/08/21 04:31:45;;;;;;;46.53;18.50;;;14.40;99.90;;;;;;5053702;28;20728;-61
2021/08/21 04:34:12;;;;;;;45.17;19.03;;;14.40;99.90;;;;;;5054064;28;20205;-61
2021/08/21 04:36:40;;;;;;;50.23;20.30;;;14.40;99.90;;;;;;5054027;28;20209;-61
2021/08/21 04:39:07;;;;;;;56.50;21.13;;;14.40;99.90;;;;;;5054096;28;20616;-62
2021/08/21 04:41:33;;;;;;;56.80;22.97;;;14.40;99.90;;;;;;5054026;28;20260;-62
2021/08/21 04:44:00;;;;;;;59.70;22.67;;;14.40;99.90;;;;;;5053933;28;20225;-61
2021/08/21 04:46:26;;;;;;;56.63;22.37;;;14.40;99.90;;;;;;5053748;28;20617;-59
2021/08/21 04:48:53;;;;;;;52.90;22.33;;;14.50;99.90;;;;;;5053766;28;20201;-59
2021/08/21 04:51:20;;;;;;;58.53;24.73;;;14.50;99.90;;;;;;5052920;28;20225;-61
2021/08/21 04:53:48;;;;;;;65.87;25.97;;;14.60;99.90;;;;;;5053881;28;20206;-61
2021/08/21 04:56:14;;;;;;;56.80;24.77;;;14.60;99.90;;;;;;5054077;28;20205;-61
2021/08/21 04:58:41;;;;;;;66.57;26.73;;;14.70;99.90;;;;;;5053787;28;20252;-61
2021/08/21 05:01:07;;;;;;;57.50;26.53;;;14.80;99.90;;;;;;5053369;28;20229;-60
2021/08/21 05:03:34;;;;;;;51.60;25.63;;;14.80;99.90;;;;;;5053336;28;20252;-61
2021/08/21 05:06:01;;;;;;;57.17;25.90;;;14.90;99.90;;;;;;5053568;28;20201;-61
2021/08/21 05:08:28;;;;;;;52.03;25.70;;;15.00;99.90;;;;;;5053445;28;20209;-60
2021/08/21 05:10:56;;;;;;;46.10;23.90;;;15.10;99.90;;;;;;5053336;28;20263;-61
2021/08/21 05:13:23;;;;;;;48.93;24.77;;;15.20;99.90;;;;;;5053081;28;20205;-61
2021/08/21 05:15:49;;;;;;;42.53;24.27;;;15.30;99.90;;;;;;5053539;28;20210;-60
2021/08/21 05:18:23;;;;;;;44.07;24.03;;;15.40;99.90;;;;;;5053405;28;20263;-59
2021/08/21 05:20:52;;;;;;;43.43;22.73;;;15.40;99.90;;;;;;5053247;28;20547;-60
2021/08/21 05:23:19;;;;;;;35.77;20.83;;;15.50;99.90;;;;;;5053231;28;20208;-59
2021/08/21 05:25:47;;;;;;;32.57;19.53;;;15.60;99.90;;;;;;5048112;28;20279;-59
2021/08/21 05:28:17;;;;;;;28.47;19.20;;;15.70;99.90;;;;;;5032855;28;20210;-60
2021/08/21 05:30:44;;;;;;;28.37;18.20;;;15.80;99.90;;;;;;5050580;28;20275;-61
2021/08/21 05:33:11;;;;;;;25.90;17.93;;;15.80;99.90;;;;;;5052997;28;20201;-61
2021/08/21 05:35:38;;;;;;;26.17;18.33;;;15.90;99.90;;;;;;5052653;28;20198;-62
2021/08/21 05:38:05;;;;;;;27.03;17.23;;;15.90;99.90;;;;;;5052845;28;20209;-62
2021/08/21 05:40:32;;;;;;;24.90;17.47;;;16.00;99.90;;;;;;5052570;28;20682;-62
2021/08/21 05:42:59;;;;;;;22.63;16.10;;;16.00;99.90;;;;;;5052804;28;20229;-62
2021/08/21 05:45:27;;;;;;;21.20;15.50;;;16.10;99.90;;;;;;5052719;28;20287;-63
2021/08/21 05:47:54;;;;;;;24.57;15.70;;;16.10;99.90;;;;;;5052723;28;20206;-62
2021/08/21 05:50:22;;;;;;;22.53;15.17;;;16.10;99.90;;;;;;5047664;28;20205;-64
2021/08/21 05:52:49;;;;;;;21.37;15.30;;;16.20;99.90;;;;;;5051839;28;20894;-63
2021/08/21 05:55:16;;;;;;;20.93;15.47;;;16.20;99.90;;;;;;5051944;28;20247;-63
2021/08/21 05:57:43;;;;;;;22.80;15.93;;;16.30;99.90;;;;;;5052200;28;20251;-63
2021/08/21 06:00:11;;;;;;;21.53;15.50;;;16.30;99.90;;;;;;5052032;28;20214;-63
2021/08/21 06:02:39;;;;;;;22.07;15.57;;;16.40;99.90;;;;;;5052087;28;20225;-62
2021/08/21 06:05:06;;;;;;;20.40;14.67;;;16.40;87.00;;;;;;5051943;28;20287;-63
2021/08/21 06:07:33;;;;;;;19.20;14.50;;;16.50;52.50;;;;;;5051964;28;20209;-63
2021/08/21 06:09:59;;;;;;;22.23;14.67;;;16.50;26.80;;;;;;5051750;28;20297;-63
2021/08/21 06:12:26;;;;;;;22.83;14.97;;;16.60;8.90;;;;;;5051790;28;20658;-63
2021/08/21 06:14:53;;;;;;;20.47;13.93;;;16.60;1.00;;;;;;5051657;28;20260;-62
2021/08/21 06:17:19;;;;;;;20.93;13.50;;;16.70;1.00;;;;;;5051875;28;20205;-62
2021/08/21 06:19:47;;;;;;;19.97;14.30;;;16.80;1.00;;;;;;5051982;28;20252;-63
2021/08/21 06:22:14;;;;;;;19.73;13.40;;;16.90;1.00;;;;;;5051081;28;20225;-62
2021/08/21 06:24:42;;;;;;;15.03;11.60;;;16.90;1.00;;;;;;5051590;28;20283;-62
2021/08/21 06:27:09;;;;;;;18.10;12.77;;;17.00;1.00;;;;;;5051694;28;20206;-63
2021/08/21 06:29:35;;;;;;;15.57;12.50;;;17.10;1.00;;;;;;5051808;28;20213;-61
2021/08/21 06:32:03;;;;;;;18.43;12.87;;;17.10;99.90;;;;;;5050695;28;20225;-63
2021/08/21 06:34:29;;;;;;;16.17;11.90;;;17.20;99.90;;;;;;5051210;28;20662;-62
2021/08/21 06:36:58;;;;;;;15.63;11.80;;;17.30;99.90;;;;;;5051315;28;20285;-63
2021/08/21 06:39:25;;;;;;;18.47;12.00;;;17.30;99.90;;;;;;5051652;28;20304;-64
2021/08/21 06:41:52;;;;;;;17.27;12.30;;;17.40;86.80;;;;;;5051272;28;20233;-63
2021/08/21 06:44:19;;;;;;;16.53;12.53;;;17.40;1.00;;;;;;5051666;28;20217;-63
2021/08/21 06:46:46;;;;;;;18.27;11.37;;;17.50;99.90;;;;;;5051468;28;20259;-63
2021/08/21 06:49:13;;;;;;;15.20;11.20;;;17.60;1.00;;;;;;5051542;28;20610;-63
2021/08/21 06:51:39;;;;;;;16.97;11.37;;;17.70;99.90;;;;;;5050869;28;20229;-63
2021/08/21 06:54:07;;;;;;;16.57;11.13;;;17.70;1.00;;;;;;5051305;28;20259;-63
2021/08/21 06:56:34;;;;;;;14.63;10.27;;;17.80;99.90;;;;;;5051545;28;20206;-63
2021/08/21 06:59:00;;;;;;;16.77;10.50;;;17.90;1.00;;;;;;5051420;28;20294;-63
2021/08/21 07:01:29;;;;;;;13.23;11.13;;;17.90;1.00;;;;;;5051040;28;20226;-63
2021/08/21 07:03:55;;;;;;;15.27;10.40;;;18.00;1.00;;;;;;5050942;28;20237;-63
2021/08/21 07:06:22;;;;;;;15.87;10.10;;;18.10;1.00;;;;;;5051434;28;20676;-63
2021/08/21 07:08:49;;;;;;;11.17;8.47;;;18.20;99.90;;;;;;5051121;28;20209;-63
2021/08/21 07:11:17;;;;;;;14.47;9.70;;;18.30;99.90;;;;;;5051076;28;20225;-64
2021/08/21 07:13:45;;;;;;;14.83;10.30;;;18.40;93.80;;;;;;5050233;28;20261;-64
2021/08/21 07:16:12;;;;;;;14.37;9.67;;;18.50;1.00;;;;;;5054820;28;20209;-63
2021/08/21 07:18:39;;;;;;;12.90;10.10;;;18.60;4.40;;;;;;5054972;28;20210;-63
2021/08/21 07:21:05;;;;;;;11.30;9.37;;;18.60;1.00;;;;;;5054795;28;20244;-63
2021/08/21 07:23:32;;;;;;;14.10;9.57;;;18.60;1.00;;;;;;5055006;28;20575;-64
2021/08/21 07:25:58;;;;;;;15.13;9.07;;;18.70;99.90;;;;;;5054895;28;20275;-65
2021/08/21 07:28:26;;;;;;;11.70;9.50;;;18.80;99.90;;;;;;5054986;28;20210;-63
2021/08/21 07:30:53;;;;;;;10.20;8.20;;;18.90;99.90;;;;;;5054255;28;20286;-65
2021/08/21 07:33:19;;;;;;;13.20;8.87;;;19.00;1.00;;;;;;5054945;28;20214;-65
2021/08/21 07:35:46;;;;;;;10.73;9.60;;;19.10;99.90;;;;;;5054753;28;20205;-66
2021/08/21 07:38:13;;;;;;;11.97;8.70;;;19.20;1.00;;;;;;5055137;28;20327;-65
2021/08/21 07:40:41;;;;;;;13.40;8.40;;;19.30;1.00;;;;;;5054488;28;20259;-64
2021/08/21 07:43:07;;;;;;;13.30;8.50;;;19.40;1.00;;;;;;5054635;28;20213;-66
2021/08/21 07:45:35;;;;;;;9.23;7.67;;;19.60;1.00;;;;;;5054283;28;20705;-65
2021/08/21 07:48:02;;;;;;;10.50;7.00;;;19.70;23.80;;;;;;5054652;28;20253;-66
2021/08/21 07:50:29;;;;;;;11.20;8.03;;;19.90;99.90;;;;;;5053636;28;20756;-65
2021/08/21 07:52:55;;;;;;;12.00;8.20;;;19.90;99.90;;;;;;5054296;28;20779;-65
2021/08/21 07:55:22;;;;;;;14.97;8.33;;;20.10;99.90;;;;;;5054227;28;20792;-64
2021/08/21 07:57:49;;;;;;;11.00;8.30;;;20.10;99.90;;;;;;5054416;28;20205;-65
2021/08/21 08:00:16;;;;;;;10.60;7.67;;;20.20;99.90;;;;;;5053884;28;20267;-65
2021/08/21 08:02:47;;;;;;;9.27;7.10;;;20.30;99.90;;;;;;5054298;28;20229;-66
2021/08/21 08:05:14;;;;;;;11.20;8.23;;;20.50;1.00;;;;;;5053465;28;20767;-64
2021/08/21 08:07:41;;;;;;;10.43;7.27;;;20.60;1.00;;;;;;5054008;28;20216;-66
2021/08/21 08:10:09;;;;;;;11.43;8.80;;;20.70;1.00;;;;;;5053980;28;20209;-64
2021/08/21 08:12:36;;;;;;;13.00;8.67;;;20.80;1.00;;;;;;5053663;28;20222;-65
2021/08/21 08:15:03;;;;;;;12.67;8.70;;;20.90;1.00;;;;;;5053961;28;20209;-67
2021/08/21 08:17:30;;;;;;;14.63;10.10;;;21.00;99.90;;;;;;5054207;28;20202;-65
2021/08/21 08:19:58;;;;;;;14.00;9.00;;;21.00;99.90;;;;;;5054515;28;20240;-65
2021/08/21 08:22:26;;;;;;;12.23;8.77;;;21.00;99.90;;;;;;5053619;28;20230;-65
2021/08/21 08:24:53;;;;;;;14.23;7.77;;;21.20;99.90;;;;;;5053704;28;20634;-65
2021/08/21 08:27:20;;;;;;;12.13;8.60;;;21.20;99.90;;;;;;5052397;28;20209;-65
2021/08/21 08:29:47;;;;;;;14.50;9.03;;;21.20;99.90;;;;;;5053889;28;20255;-64
2021/08/21 08:32:13;;;;;;;11.10;8.80;;;21.30;99.90;;;;;;5053191;28;20253;-64
2021/08/21 08:34:40;;;;;;;14.70;9.43;;;21.40;99.90;;;;;;5053632;28;20210;-65
2021/08/21 08:37:12;;;;;;;11.97;9.23;;;21.40;99.90;;;;;;5053673;28;20585;-64
2021/08/21 08:39:40;;;;;;;13.17;10.03;;;21.40;43.30;;;;;;5053387;28;20211;-64
2021/08/21 08:42:08;;;;;;;11.83;9.03;;;21.50;11.70;;;;;;5053176;28;20233;-64
2021/08/21 08:44:38;;;;;;;13.47;9.73;;;21.60;41.90;;;;;;5053237;28;20212;-64
2021/08/21 08:47:05;;;;;;;12.97;9.33;;;21.70;1.00;;;;;;5053534;28;20241;-64
2021/08/21 08:49:32;;;;;;;13.17;9.40;;;21.90;1.00;;;;;;5053311;28;20259;-64
2021/08/21 08:51:58;;;;;;;14.07;9.57;;;22.00;1.00;;;;;;5053114;28;20226;-64
2021/08/21 08:54:26;;;;;;;12.53;9.70;;;22.10;1.00;;;;;;5052993;28;20209;-64
2021/08/21 08:56:53;;;;;;;12.97;8.97;;;22.20;1.00;;;;;;5053350;28;20201;-65
2021/08/21 08:59:20;;;;;;;13.43;9.43;;;22.40;1.00;;;;;;5053273;28;20210;-65
2021/08/21 09:01:46;;;;;;;11.10;8.37;;;22.50;1.00;;;;;;5053031;28;20295;-65
2021/08/21 09:04:17;;;;;;;12.27;8.07;;;22.60;1.00;;;;;;5052862;28;20205;-65
2021/08/21 09:06:44;;;;;;;10.60;7.67;;;22.60;1.00;;;;;;5052766;28;20295;-65
2021/08/21 09:09:12;;;;;;;11.10;7.70;;;22.60;1.00;;;;;;5052816;28;20215;-65
2021/08/21 09:11:45;;;;;;;11.93;8.20;;;22.80;1.00;;;;;;5052033;28;20267;-64
2021/08/21 09:14:21;;;;;;;12.43;7.10;;;22.90;1.00;;;;;;5052854;28;20756;-65
2021/08/21 09:16:49;;;;;;;12.27;7.20;;;23.10;99.90;;;;;;5052644;28;20301;-65
2021/08/21 09:19:24;;;;;;;9.40;6.43;;;23.20;1.00;;;;;;5052788;28;20202;-65
2021/08/21 09:22:01;;;;;;;10.10;7.07;;;23.10;1.00;;;;;;5052613;28;20229;-66
2021/08/21 09:24:28;;;;;;;10.40;7.70;;;23.10;99.90;;;;;;5052729;28;20201;-65
2021/08/21 09:26:56;;;;;;;10.63;7.97;;;23.00;1.00;;;;;;5052374;28;20229;-65
2021/08/21 09:29:27;;;;;;;11.70;7.67;;;23.10;99.90;;;;;;5052529;28;20613;-65
2021/08/21 09:32:06;;;;;;;9.87;6.40;;;23.30;1.00;;;;;;5052055;28;20222;-65
2021/08/21 09:34:32;;;;;;;9.63;6.10;;;23.30;1.00;;;;;;5052726;28;20209;-65
2021/08/21 09:36:59;;;;;;;9.57;6.83;;;23.10;1.00;;;;;;5052313;28;20264;-66
2021/08/21 09:39:34;;;;;;;9.80;7.13;;;23.10;1.00;;;;;;5052542;28;20213;-64
2021/08/21 09:42:04;;;;;;;9.73;6.90;;;23.00;99.90;;;;;;5051952;28;20221;-65
2021/08/21 09:44:32;;;;;;;8.67;6.60;;;23.10;99.90;;;;;;5052177;28;20209;-64
2021/08/21 09:47:14;;;;;;;8.93;5.77;;;23.20;1.00;;;;;;5052352;28;20280;-63
2021/08/21 09:49:42;;;;;;;9.10;6.10;;;23.20;1.00;;;;;;5051945;28;20259;-64
2021/08/21 09:52:11;;;;;;;8.43;5.93;;;23.30;99.90;;;;;;5052173;28;20283;-67
2021/08/21 09:54:39;;;;;;;6.33;4.70;;;23.50;1.00;;;;;;5051456;28;20209;-66
2021/08/21 09:57:07;;;;;;;4.60;3.60;;;23.50;99.90;;;;;;5051958;28;20216;-65
2021/08/21 09:59:36;;;;;;;5.63;4.07;;;23.50;99.90;;;;;;5052210;28;20254;-66
2021/08/21 10:02:06;;;;;;;4.67;3.57;;;23.10;99.90;;;;;;5052189;28;20605;-65
2021/08/21 10:04:33;;;;;;;5.03;3.50;;;23.00;99.90;;;;;;5051498;28;20208;-66
2021/08/21 10:07:03;;;;;;;5.13;3.97;;;22.90;99.90;;;;;;5051995;28;20225;-65
2021/08/21 10:09:30;;;;;;;8.20;4.10;;;23.10;99.90;;;;;;5051846;28;20267;-65
2021/08/21 10:11:57;;;;;;;5.50;4.13;;;23.30;99.90;;;;;;5051636;28;20640;-65
2021/08/21 10:14:26;;;;;;;4.93;3.77;;;23.20;99.90;;;;;;5051983;28;20202;-65
2021/08/21 10:16:53;;;;;;;3.90;3.30;;;23.40;99.90;;;;;;5051913;28;20292;-64
2021/08/21 10:19:22;;;;;;;4.20;3.20;;;23.50;99.90;;;;;;5052143;28;20232;-65
2021/08/21 10:21:51;;;;;;;5.23;2.80;;;23.40;99.90;;;;;;5050926;28;20226;-64
2021/08/21 10:24:26;;;;;;;4.23;2.80;;;23.60;99.90;;;;;;5052056;28;20209;-64
2021/08/21 10:26:56;;;;;;;5.73;3.90;;;24.00;99.90;;;;;;5051767;28;20599;-64
2021/08/21 10:29:24;;;;;;;5.80;3.23;;;24.40;99.90;;;;;;5051783;28;20662;-64
2021/08/21 10:31:51;;;;;;;4.77;3.20;;;24.60;99.90;;;;;;5051023;28;20235;-67
2021/08/21 10:34:18;;;;;;;5.40;3.10;;;24.50;99.90;;;;;;5051405;28;20258;-65
2021/08/21 10:36:48;;;;;;;6.10;2.80;;;24.60;99.90;;;;;;5051578;28;20205;-66
2021/08/21 10:39:18;;;;;;;3.43;2.43;;;24.70;99.90;;;;;;5051846;28;20205;-66
2021/08/21 10:41:45;;;;;;;6.10;3.43;;;24.70;99.90;;;;;;5051065;28;20725;-63
2021/08/21 10:44:12;;;;;;;6.07;2.70;;;24.60;99.90;;;;;;5051531;28;20266;-63
2021/08/21 10:46:54;;;;;;;4.10;3.03;;;24.50;99.90;;;;;;5051512;28;20229;-63
2021/08/21 10:49:44;;;;;;;5.87;3.30;;;24.20;99.90;;;;;;5050941;28;20205;-63
2021/08/21 10:52:44;;;;;;;5.80;2.90;;;23.50;99.90;;;;;;5051255;28;20232;-63
2021/08/21 10:55:22;;;;;;;4.57;2.30;;;23.20;99.90;;;;;;5051266;28;20209;-65
2021/08/21 10:58:12;;;;;;;2.33;2.13;;;23.30;99.90;;;;;;5051544;28;20259;-64
2021/08/21 11:00:46;;;;;;;4.43;2.30;;;23.50;99.90;;;;;;5047938;28;20206;-65
2021/08/21 11:03:15;;;;;;;3.07;2.30;;;23.70;99.90;;;;;;5051461;28;20246;-64
2021/08/21 11:05:53;;;;;;;4.80;2.27;;;23.80;99.90;;;;;;5050681;28;20654;-64
2021/08/21 11:08:21;;;;;;;2.70;2.10;;;24.10;99.90;;;;;;5051539;28;20566;-65
2021/08/21 11:10:48;;;;;;;3.37;2.37;;;24.40;99.90;;;;;;5050782;28;20206;-65
2021/08/21 11:13:49;;;;;;;4.97;2.53;;;24.50;99.90;;;;;;5051334;28;20267;-65
2021/08/21 11:16:17;;;;;;;3.70;2.07;;;24.60;99.90;;;;;;5051051;28;20806;-64
2021/08/21 11:18:47;;;;;;;3.23;1.80;;;24.80;99.90;;;;;;5051391;28;20213;-64
2021/08/21 11:21:34;;;;;;;2.97;2.00;;;24.90;99.90;;;;;;5050599;28;20729;-64
2021/08/21 11:24:01;;;;;;;1.90;1.70;;;25.00;99.90;;;;;;5050746;28;20656;-63
2021/08/21 11:26:28;;;;;;;1.70;1.60;;;25.10;99.90;;;;;;5051011;28;20233;-64
2021/08/21 11:29:14;;;;;;;2.53;1.90;;;25.20;99.90;;;;;;5051270;28;20736;-65
2021/08/21 11:31:55;;;;;;;2.83;1.80;;;25.20;99.90;;;;;;5052134;28;20718;-64
2021/08/21 11:34:23;;;;;;;3.50;1.70;;;25.20;99.90;;;;;;5055206;28;20232;-67
2021/08/21 11:36:50;;;;;;;1.97;1.77;;;25.20;99.90;;;;;;5056668;28;20629;-67
2021/08/21 11:39:18;;;;;;;2.27;1.70;;;25.30;99.90;;;;;;5055616;28;20752;-67
2021/08/21 11:41:55;;;;;;;2.53;1.70;;;25.30;99.90;;;;;;5052889;28;20608;-66
2021/08/21 11:44:29;;;;;;;2.23;1.80;;;25.40;99.90;;;;;;5054469;28;20296;-65
2021/08/21 11:47:08;;;;;;;4.03;2.13;;;25.00;99.90;;;;;;5054735;28;20256;-66
2021/08/21 11:49:36;;;;;;;3.97;2.20;;;24.90;99.90;;;;;;5054916;28;20213;-65
2021/08/21 11:52:03;;;;;;;4.67;2.20;;;24.60;99.90;;;;;;5054828;28;20229;-66
2021/08/21 11:54:30;;;;;;;2.20;1.90;;;24.60;99.90;;;;;;5051263;28;20201;-66
2021/08/21 11:56:58;;;;;;;2.30;2.03;;;24.70;99.90;;;;;;5052396;28;20255;-66
2021/08/21 11:59:24;;;;;;;3.00;1.93;;;24.60;99.90;;;;;;5051483;28;20702;-66
2021/08/21 12:02:00;;;;;;;2.43;1.83;;;24.70;99.90;;;;;;5054201;28;20229;-66
2021/08/21 12:04:28;;;;;;;2.67;1.77;;;25.00;99.90;;;;;;5054826;28;20256;-63
2021/08/21 12:06:56;;;;;;;3.30;2.20;;;25.30;99.90;;;;;;5054391;28;20232;-63
2021/08/21 12:09:23;;;;;;;4.27;1.80;;;25.50;99.90;;;;;;5054218;28;20206;-63
2021/08/21 12:11:51;;;;;;;3.27;1.80;;;25.50;99.90;;;;;;5054141;28;20268;-63
2021/08/21 12:14:20;;;;;;;2.40;2.00;;;25.70;99.90;;;;;;5052300;28;20205;-61
2021/08/21 12:16:49;;;;;;;4.87;1.80;;;25.50;99.90;;;;;;5054651;28;20285;-62
2021/08/21 12:19:16;;;;;;;3.47;2.10;;;25.60;99.90;;;;;;5055289;28;20260;-59
2021/08/21 12:21:43;;;;;;;2.37;1.63;;;25.70;99.90;;;;;;5054364;28;20295;-59
2021/08/21 12:24:13;;;;;;;2.87;2.10;;;25.50;99.90;;;;;;5054190;28;20271;-60
2021/08/21 12:26:42;;;;;;;3.10;2.10;;;25.30;99.90;;;;;;5054529;28;20222;-60
2021/08/21 12:29:22;;;;;;;2.70;2.20;;;25.00;99.90;;;;;;5054437;28;20208;-60
2021/08/21 12:31:50;;;;;;;4.00;2.00;;;24.60;99.90;;;;;;5054239;28;20229;-60
2021/08/21 12:34:18;;;;;;;2.57;1.90;;;24.50;99.90;;;;;;5054323;28;20260;-61
2021/08/21 12:36:46;;;;;;;4.50;2.03;;;24.50;99.90;;;;;;5054075;28;20213;-61
2021/08/21 12:39:19;;;;;;;4.93;2.20;;;24.70;99.90;;;;;;5053813;28;20670;-61
2021/08/21 12:41:51;;;;;;;3.07;2.50;;;24.90;99.90;;;;;;5054339;28;20283;-60
2021/08/21 12:44:20;;;;;;;3.07;1.83;;;25.10;99.90;;;;;;5053942;28;20201;-61